createdAt,value
2023-02-13T00:00:38.750Z,6.25
2023-02-13T00:03:05.173Z,6.26
2023-02-13T00:05:31.613Z,6.25
2023-02-13T00:07:58.160Z,6.25
2023-02-13T00:10:24.677Z,6.25
2023-02-13T00:12:51.086Z,6.26
2023-02-13T00:15:17.583Z,6.24
2023-02-13T00:17:44.044Z,6.24
2023-02-13T00:20:11.942Z,6.24
2023-02-13T00:22:39.402Z,6.24
2023-02-13T00:25:07.474Z,6.25
2023-02-13T00:27:33.937Z,6.24
2023-02-13T00:30:03.966Z,6.23
2023-02-13T00:32:30.983Z,6.21
2023-02-13T00:34:58.104Z,6.21
2023-02-13T00:37:25.192Z,6.21
2023-02-13T00:39:52.612Z,6.21
2023-02-13T00:42:20.392Z,6.22
2023-02-13T00:44:46.858Z,6.20
2023-02-13T00:47:14.923Z,6.19
2023-02-13T00:49:41.748Z,6.19
2023-02-13T00:52:08.265Z,6.19
2023-02-13T00:54:34.836Z,6.18
2023-02-13T00:57:01.638Z,6.19
2023-02-13T00:59:28.085Z,6.19
2023-02-13T01:01:54.667Z,6.19
2023-02-13T01:04:21.270Z,6.17
2023-02-13T01:06:48.191Z,6.17
2023-02-13T01:09:14.811Z,6.16
2023-02-13T01:11:41.293Z,6.16
2023-02-13T01:14:07.721Z,6.16
2023-02-13T01:16:34.146Z,6.14
2023-02-13T01:19:00.591Z,6.12
2023-02-13T01:21:27.040Z,6.11
2023-02-13T01:23:53.678Z,6.11
2023-02-13T01:26:22.944Z,6.13
2023-02-13T01:28:54.368Z,6.12
2023-02-13T01:31:21.916Z,6.11
2023-02-13T01:33:50.391Z,6.12
2023-02-13T01:36:17.020Z,6.12
2023-02-13T01:38:43.782Z,6.09
2023-02-13T01:41:10.994Z,6.09
2023-02-13T01:43:50.438Z,6.09
2023-02-13T01:46:23.097Z,6.08
2023-02-13T01:48:52.372Z,6.05
2023-02-13T01:51:24.885Z,6.05
2023-02-13T01:54:01.056Z,6.07
2023-02-13T01:56:31.459Z,6.07
2023-02-13T01:59:01.372Z,6.04
2023-02-13T02:01:29.089Z,6.05
2023-02-13T02:04:00.506Z,6.05
2023-02-13T02:06:39.957Z,6.03
2023-02-13T02:09:12.451Z,6.04
2023-02-13T02:11:48.801Z,6.07
2023-02-13T02:14:15.563Z,6.10
2023-02-13T02:16:42.844Z,6.10
2023-02-13T02:19:19.369Z,6.13
2023-02-13T02:21:59.173Z,6.14
2023-02-13T02:24:55.000Z,6.17
2023-02-13T02:27:58.247Z,6.17
2023-02-13T02:30:52.564Z,6.18
2023-02-13T02:33:33.693Z,6.18
2023-02-13T02:36:22.445Z,6.18
2023-02-13T02:39:00.909Z,6.19
2023-02-13T02:41:42.608Z,6.17
2023-02-13T02:44:32.971Z,6.15
2023-02-13T02:48:00.745Z,6.19
2023-02-13T02:50:39.545Z,6.15
2023-02-13T02:53:09.329Z,6.15
2023-02-13T02:55:54.933Z,6.14
2023-02-13T02:58:51.321Z,6.16
2023-02-13T03:01:43.674Z,6.17
2023-02-13T03:04:45.676Z,6.17
2023-02-13T03:07:16.734Z,6.17
2023-02-13T03:10:07.077Z,6.19
2023-02-13T03:13:04.245Z,6.15
2023-02-13T03:15:32.682Z,6.15
2023-02-13T03:18:18.122Z,6.17
2023-02-13T03:21:29.914Z,6.15
2023-02-13T03:24:07.493Z,6.12
2023-02-13T03:26:51.688Z,6.15
2023-02-13T03:29:50.048Z,6.12
2023-02-13T03:32:31.367Z,6.13
2023-02-13T03:35:39.241Z,6.14
2023-02-13T03:38:15.485Z,6.15
2023-02-13T03:41:20.220Z,6.14
2023-02-13T03:43:52.889Z,6.15
2023-02-13T03:46:20.382Z,6.17
2023-02-13T03:49:07.065Z,6.18
2023-02-13T03:51:39.788Z,6.16
2023-02-13T03:54:17.386Z,6.16
2023-02-13T03:57:03.365Z,6.15
2023-02-13T03:59:34.673Z,6.17
2023-02-13T04:02:13.107Z,6.15
2023-02-13T04:04:58.412Z,6.15
2023-02-13T04:07:32.094Z,6.14
2023-02-13T04:10:01.595Z,6.12
2023-02-13T04:12:57.001Z,6.10
2023-02-13T04:15:34.953Z,6.11
2023-02-13T04:18:13.141Z,6.12
2023-02-13T04:20:40.036Z,6.14
2023-02-13T04:23:12.202Z,6.12
2023-02-13T04:25:41.290Z,6.14
2023-02-13T04:28:08.688Z,6.13
2023-02-13T04:30:35.876Z,6.14
2023-02-13T04:33:02.520Z,6.16
2023-02-13T04:35:28.944Z,6.16
2023-02-13T04:37:55.345Z,6.16
2023-02-13T04:40:21.759Z,6.15
2023-02-13T04:42:49.251Z,6.15
2023-02-13T04:45:16.179Z,6.14
2023-02-13T04:47:43.025Z,6.10
2023-02-13T04:50:09.874Z,6.12
2023-02-13T04:52:36.281Z,6.12
2023-02-13T04:55:02.704Z,6.12
2023-02-13T04:57:29.105Z,6.13
2023-02-13T04:59:55.524Z,6.11
2023-02-13T05:02:21.936Z,6.15
2023-02-13T05:04:48.409Z,6.20
2023-02-13T05:07:15.055Z,6.18
2023-02-13T05:09:41.860Z,6.13
2023-02-13T05:12:08.431Z,6.12
2023-02-13T05:14:35.002Z,6.12
2023-02-13T05:17:02.658Z,6.12
2023-02-13T05:19:29.077Z,6.12
2023-02-13T05:22:14.074Z,6.12
2023-02-13T05:24:40.544Z,6.13
2023-02-13T05:27:06.967Z,6.12
2023-02-13T05:29:33.409Z,6.11
2023-02-13T05:32:00.089Z,6.10
2023-02-13T05:34:28.528Z,6.10
2023-02-13T05:36:55.555Z,6.10
2023-02-13T05:39:22.309Z,6.12
2023-02-13T05:41:49.510Z,6.11
2023-02-13T05:44:16.699Z,6.13
2023-02-13T05:46:45.145Z,6.12
2023-02-13T05:49:13.608Z,6.10
2023-02-13T05:51:40.095Z,6.11
2023-02-13T05:54:06.552Z,6.10
2023-02-13T05:56:32.996Z,6.08
2023-02-13T05:58:59.387Z,6.07
2023-02-13T06:01:26.204Z,6.05
2023-02-13T06:03:52.621Z,6.04
2023-02-13T06:06:19.631Z,6.04
2023-02-13T06:08:46.099Z,6.03
2023-02-13T06:11:12.951Z,6.02
2023-02-13T06:13:40.730Z,6.04
2023-02-13T06:16:08.794Z,6.08
2023-02-13T06:18:35.323Z,6.10
2023-02-13T06:21:03.248Z,6.10
2023-02-13T06:23:30.227Z,6.09
2023-02-13T06:25:57.134Z,6.09
2023-02-13T06:28:23.758Z,6.16
2023-02-13T06:30:50.382Z,6.08
2023-02-13T06:33:17.064Z,6.24
2023-02-13T06:35:43.757Z,6.11
2023-02-13T06:38:10.395Z,6.10
2023-02-13T06:40:36.875Z,6.10
2023-02-13T06:43:03.265Z,6.09
2023-02-13T06:45:29.961Z,6.10
2023-02-13T06:47:56.504Z,6.17
2023-02-13T06:50:22.957Z,6.16
2023-02-13T06:52:51.021Z,6.11
2023-02-13T06:55:18.048Z,6.13
2023-02-13T06:57:44.958Z,6.12
2023-02-13T07:00:14.380Z,6.11
2023-02-13T07:02:41.892Z,6.12
2023-02-13T07:05:09.285Z,6.28
2023-02-13T07:07:36.982Z,6.17
2023-02-13T07:10:04.940Z,6.17
2023-02-13T07:12:33.832Z,6.15
2023-02-13T07:15:00.541Z,6.10
2023-02-13T07:17:27.276Z,6.08
2023-02-13T07:19:53.640Z,6.22
2023-02-13T07:22:20.782Z,6.24
2023-02-13T07:24:47.218Z,6.13
2023-02-13T07:27:13.681Z,6.20
2023-02-13T07:29:40.191Z,6.22
2023-02-13T07:32:07.136Z,6.15
2023-02-13T07:34:33.678Z,6.23
2023-02-13T07:37:00.108Z,6.20
2023-02-13T07:39:27.437Z,6.18
2023-02-13T07:41:53.949Z,6.33
2023-02-13T07:44:25.337Z,6.30
2023-02-13T07:46:51.835Z,6.27
2023-02-13T07:49:18.489Z,6.26
2023-02-13T07:51:45.008Z,6.22
2023-02-13T07:54:11.464Z,6.28
2023-02-13T07:56:38.037Z,6.30
2023-02-13T07:59:06.245Z,6.37
2023-02-13T08:01:33.289Z,6.30
2023-02-13T08:03:59.831Z,6.28
2023-02-13T08:06:26.368Z,6.31
2023-02-13T08:09:12.877Z,6.41
2023-02-13T08:11:54.363Z,6.34
2023-02-13T08:14:25.601Z,6.29
2023-02-13T08:16:54.024Z,6.41
2023-02-13T08:19:20.972Z,6.36
2023-02-13T08:21:47.409Z,6.39
2023-02-13T08:24:13.875Z,6.49
2023-02-13T08:26:40.465Z,6.44
2023-02-13T08:29:07.520Z,6.39
2023-02-13T08:31:34.148Z,6.43
2023-02-13T08:34:00.722Z,6.48
2023-02-13T08:36:29.496Z,6.46
2023-02-13T08:38:56.007Z,6.45
2023-02-13T08:41:23.059Z,6.57
2023-02-13T08:43:50.482Z,6.60
2023-02-13T08:46:19.990Z,6.58
2023-02-13T08:48:46.711Z,6.56
2023-02-13T08:51:14.271Z,6.53
2023-02-13T08:53:42.312Z,6.58
2023-02-13T08:56:09.785Z,6.71
2023-02-13T08:58:36.383Z,6.65
2023-02-13T09:01:07.850Z,6.67
2023-02-13T09:03:35.571Z,6.70
2023-02-13T09:06:02.846Z,6.71
2023-02-13T09:08:29.649Z,6.74
2023-02-13T09:11:02.609Z,6.79
2023-02-13T09:13:34.389Z,6.80
2023-02-13T09:16:02.450Z,6.78
2023-02-13T09:18:28.955Z,6.80
2023-02-13T09:21:02.722Z,6.86
2023-02-13T09:23:34.382Z,6.90
2023-02-13T09:26:06.281Z,6.91
2023-02-13T09:28:34.671Z,7.00
2023-02-13T09:31:08.989Z,6.92
2023-02-13T09:33:35.641Z,6.95
2023-02-13T09:36:20.020Z,6.94
2023-02-13T09:38:56.641Z,6.99
2023-02-13T09:41:34.099Z,6.99
2023-02-13T09:44:35.370Z,7.00
2023-02-13T09:47:14.986Z,7.03
2023-02-13T09:49:46.154Z,7.09
2023-02-13T09:52:12.899Z,7.18
2023-02-13T09:54:39.524Z,7.13
2023-02-13T09:57:31.079Z,7.13
2023-02-13T10:00:15.937Z,7.21
2023-02-13T10:02:54.505Z,7.26
2023-02-13T10:05:45.516Z,7.34
2023-02-13T10:08:53.742Z,7.36
2023-02-13T10:11:20.461Z,7.45
2023-02-13T10:13:55.789Z,7.57
2023-02-13T10:16:39.537Z,7.56
2023-02-13T10:19:13.470Z,7.70
2023-02-13T10:21:56.644Z,7.70
2023-02-13T10:24:47.385Z,7.64
2023-02-13T10:27:32.698Z,7.60
2023-02-13T10:30:05.572Z,7.61
2023-02-13T10:32:34.709Z,7.60
2023-02-13T10:35:04.651Z,7.63
2023-02-13T10:37:31.578Z,7.65
2023-02-13T10:39:58.090Z,7.61
2023-02-13T10:42:41.524Z,7.67
2023-02-13T10:45:49.932Z,7.71
2023-02-13T10:48:39.376Z,7.87
2023-02-13T10:51:19.046Z,7.79
2023-02-13T10:54:20.091Z,7.79
2023-02-13T10:57:05.173Z,7.83
2023-02-13T10:59:51.593Z,8.00
2023-02-13T11:02:30.461Z,7.95
2023-02-13T11:05:10.626Z,7.99
2023-02-13T11:07:39.514Z,7.91
2023-02-13T11:10:18.020Z,7.95
2023-02-13T11:12:45.521Z,8.04
2023-02-13T11:15:25.530Z,8.01
2023-02-13T11:18:00.047Z,8.10
2023-02-13T11:20:38.660Z,8.13
2023-02-13T11:23:25.549Z,8.32
2023-02-13T11:25:59.602Z,8.23
2023-02-13T11:28:28.812Z,8.18
2023-02-13T11:31:27.382Z,8.19
2023-02-13T11:33:54.483Z,8.32
2023-02-13T11:36:29.915Z,8.13
2023-02-13T11:39:18.072Z,8.15
2023-02-13T11:41:46.216Z,8.24
2023-02-13T11:44:32.259Z,8.23
2023-02-13T11:47:01.200Z,8.16
2023-02-13T11:49:34.979Z,8.30
2023-02-13T11:52:06.189Z,8.37
2023-02-13T11:54:38.480Z,8.38
2023-02-13T11:57:28.230Z,8.42
2023-02-13T11:59:54.709Z,8.39
2023-02-13T12:02:29.684Z,8.38
2023-02-13T12:05:16.711Z,8.45
2023-02-13T12:07:45.564Z,8.48
2023-02-13T12:10:15.377Z,8.50
2023-02-13T12:12:47.355Z,8.59
2023-02-13T12:15:35.676Z,8.60
2023-02-13T12:18:30.044Z,8.61
2023-02-13T12:21:29.014Z,8.66
2023-02-13T12:24:29.246Z,8.72
2023-02-13T12:27:12.646Z,8.65
2023-02-13T12:30:27.842Z,8.68
2023-02-13T12:33:20.669Z,8.74
2023-02-13T12:36:24.273Z,8.59
2023-02-13T12:39:13.728Z,8.54
2023-02-13T12:42:17.187Z,8.61
2023-02-13T12:44:49.892Z,8.56
2023-02-13T12:47:28.053Z,8.63
2023-02-13T12:50:18.720Z,8.53
2023-02-13T12:53:02.917Z,8.60
2023-02-13T12:55:54.991Z,8.61
2023-02-13T12:58:47.823Z,8.57
2023-02-13T13:01:33.813Z,8.66
2023-02-13T13:04:06.918Z,8.75
2023-02-13T13:06:47.632Z,8.92
2023-02-13T13:09:22.802Z,8.87
2023-02-13T13:12:22.049Z,8.80
2023-02-13T13:14:59.316Z,8.97
2023-02-13T13:17:43.689Z,8.98
2023-02-13T13:20:47.481Z,8.88
2023-02-13T13:23:21.992Z,8.80
2023-02-13T13:25:53.637Z,8.76
2023-02-13T13:28:26.296Z,8.76
2023-02-13T13:30:53.534Z,8.78
2023-02-13T13:33:22.642Z,8.78
2023-02-13T13:36:03.773Z,8.85
2023-02-13T13:38:51.996Z,8.80
2023-02-13T13:41:27.381Z,8.82
2023-02-13T13:44:31.364Z,8.85
2023-02-13T13:47:02.575Z,8.89
2023-02-13T13:49:53.564Z,8.91
2023-02-13T13:52:32.932Z,8.95
2023-02-13T13:55:02.444Z,8.93
2023-02-13T13:57:41.421Z,8.93
2023-02-13T14:00:13.612Z,8.93
2023-02-13T14:02:42.445Z,8.94
2023-02-13T14:05:23.617Z,8.92
2023-02-13T14:07:56.277Z,8.84
2023-02-13T14:10:25.445Z,8.80
2023-02-13T14:12:57.787Z,8.78
2023-02-13T14:15:39.489Z,8.80
2023-02-13T14:18:14.967Z,8.81
2023-02-13T14:20:50.797Z,8.82
2023-02-13T14:23:36.074Z,8.76
2023-02-13T14:26:17.653Z,8.73
2023-02-13T14:28:50.135Z,8.72
2023-02-13T14:31:51.624Z,8.76
2023-02-13T14:34:26.544Z,8.72
2023-02-13T14:37:42.908Z,8.64
2023-02-13T14:40:18.394Z,8.66
2023-02-13T14:42:51.123Z,8.45
2023-02-13T14:45:22.956Z,8.42
2023-02-13T14:47:55.357Z,8.50
2023-02-13T14:50:52.700Z,8.51
2023-02-13T14:53:26.325Z,8.42
2023-02-13T14:56:01.981Z,8.41
2023-02-13T14:58:32.477Z,8.41
2023-02-13T15:01:37.209Z,8.51
2023-02-13T15:04:12.742Z,8.48
2023-02-13T15:06:43.435Z,8.52
2023-02-13T15:09:20.649Z,8.48
2023-02-13T15:11:47.466Z,8.46
2023-02-13T15:14:25.944Z,8.47
2023-02-13T15:16:57.425Z,8.50
2023-02-13T15:19:25.753Z,8.43
2023-02-13T15:21:56.540Z,8.42
2023-02-13T15:24:23.923Z,8.49
2023-02-13T15:27:00.388Z,8.65
2023-02-13T15:29:35.235Z,8.47
2023-02-13T15:32:25.958Z,8.34
2023-02-13T15:34:52.365Z,8.33
2023-02-13T15:37:24.197Z,8.31
2023-02-13T15:39:50.663Z,8.41
2023-02-13T15:42:17.399Z,8.53
2023-02-13T15:44:47.570Z,8.33
2023-02-13T15:47:26.383Z,8.35
2023-02-13T15:49:53.374Z,8.20
2023-02-13T15:52:28.553Z,8.20
2023-02-13T15:54:56.437Z,8.12
2023-02-13T15:57:24.659Z,8.02
2023-02-13T15:59:53.013Z,7.97
2023-02-13T16:02:33.572Z,7.93
2023-02-13T16:05:02.242Z,8.16
2023-02-13T16:07:30.557Z,8.00
2023-02-13T16:10:34.685Z,7.99
2023-02-13T16:13:04.112Z,7.90
2023-02-13T16:15:33.756Z,7.82
2023-02-13T16:18:00.526Z,7.74
2023-02-13T16:20:30.168Z,7.69
2023-02-13T16:23:05.837Z,7.65
2023-02-13T16:25:37.850Z,7.76
2023-02-13T16:28:18.210Z,7.63
2023-02-13T16:31:04.314Z,7.59
2023-02-13T16:33:32.119Z,7.55
2023-02-13T16:36:01.095Z,7.51
2023-02-13T16:38:42.184Z,7.47
2023-02-13T16:41:25.816Z,7.45
2023-02-13T16:44:03.336Z,7.43
2023-02-13T16:46:40.150Z,7.48
2023-02-13T16:49:09.570Z,7.61
2023-02-13T16:51:38.512Z,7.52
2023-02-13T16:54:16.548Z,7.44
2023-02-13T16:56:56.243Z,7.42
2023-02-13T16:59:34.727Z,7.30
2023-02-13T17:02:16.417Z,7.26
2023-02-13T17:04:50.305Z,7.24
2023-02-13T17:07:31.272Z,7.22
2023-02-13T17:10:03.748Z,7.14
2023-02-13T17:12:31.762Z,7.11
2023-02-13T17:14:59.750Z,7.01
2023-02-13T17:17:28.813Z,7.03
2023-02-13T17:19:55.236Z,6.99
2023-02-13T17:22:31.270Z,6.94
2023-02-13T17:24:59.031Z,6.92
2023-02-13T17:27:26.564Z,6.84
2023-02-13T17:29:53.056Z,6.78
2023-02-13T17:32:23.216Z,6.68
2023-02-13T17:34:50.085Z,6.62
2023-02-13T17:37:20.870Z,6.54
2023-02-13T17:39:48.054Z,6.51
2023-02-13T17:42:32.926Z,6.38
2023-02-13T17:44:59.502Z,6.39
2023-02-13T17:47:26.357Z,6.28
2023-02-13T17:49:59.090Z,6.28
2023-02-13T17:52:31.394Z,6.21
2023-02-13T17:54:57.782Z,6.15
2023-02-13T17:57:24.282Z,6.11
2023-02-13T17:59:51.137Z,6.07
2023-02-13T18:02:22.766Z,6.00
2023-02-13T18:04:50.200Z,5.94
2023-02-13T18:07:20.074Z,5.89
2023-02-13T18:09:47.563Z,5.85
2023-02-13T18:12:22.442Z,5.82
2023-02-13T18:14:50.449Z,5.74
2023-02-13T18:17:18.915Z,5.70
2023-02-13T18:19:46.491Z,5.65
2023-02-13T18:22:13.871Z,5.60
2023-02-13T18:24:42.238Z,5.59
2023-02-13T18:27:11.000Z,5.54
2023-02-13T18:29:37.598Z,5.50
2023-02-13T18:32:06.710Z,5.44
2023-02-13T18:34:35.725Z,5.36
2023-02-13T18:37:02.979Z,5.35
2023-02-13T18:39:29.447Z,5.29
2023-02-13T18:41:56.309Z,5.25
2023-02-13T18:44:28.485Z,5.22
2023-02-13T18:46:55.892Z,5.22
2023-02-13T18:49:22.320Z,5.16
2023-02-13T18:51:48.837Z,5.09
2023-02-13T18:54:16.392Z,5.13
2023-02-13T18:56:42.905Z,5.11
2023-02-13T18:59:09.509Z,5.03
2023-02-13T19:01:36.561Z,4.93
2023-02-13T19:04:04.169Z,4.85
2023-02-13T19:06:31.985Z,4.77
2023-02-13T19:08:59.326Z,4.77
2023-02-13T19:11:27.131Z,4.68
2023-02-13T19:13:55.661Z,4.59
2023-02-13T19:16:23.640Z,4.57
2023-02-13T19:18:55.698Z,4.58
2023-02-13T19:21:24.531Z,4.59
2023-02-13T19:23:51.714Z,4.60
2023-02-13T19:26:20.787Z,4.57
2023-02-13T19:28:48.037Z,4.47
2023-02-13T19:31:18.402Z,4.45
2023-02-13T19:33:45.732Z,4.42
2023-02-13T19:36:15.158Z,4.33
2023-02-13T19:38:43.605Z,4.31
2023-02-13T19:41:17.895Z,4.30
2023-02-13T19:43:53.349Z,4.23
2023-02-13T19:46:28.662Z,4.24
2023-02-13T19:48:55.563Z,4.21
2023-02-13T19:51:24.573Z,4.21
2023-02-13T19:54:01.394Z,4.14
2023-02-13T19:56:29.635Z,4.10
2023-02-13T19:58:57.009Z,4.02
2023-02-13T20:01:25.847Z,3.96
2023-02-13T20:03:53.403Z,3.92
2023-02-13T20:06:24.741Z,3.92
2023-02-13T20:08:52.475Z,3.87
2023-02-13T20:11:20.474Z,3.82
2023-02-13T20:13:47.613Z,3.75
2023-02-13T20:16:16.572Z,3.70
2023-02-13T20:18:43.257Z,3.67
2023-02-13T20:21:12.800Z,3.66
2023-02-13T20:23:39.405Z,3.62
2023-02-13T20:26:07.856Z,3.66
2023-02-13T20:28:34.356Z,3.53
2023-02-13T20:31:01.337Z,3.47
2023-02-13T20:33:28.021Z,3.41
2023-02-13T20:35:55.684Z,3.32
2023-02-13T20:38:22.092Z,3.21
2023-02-13T20:40:48.915Z,3.13
2023-02-13T20:43:15.394Z,3.09
2023-02-13T20:45:42.016Z,3.07
2023-02-13T20:48:08.560Z,3.12
2023-02-13T20:50:35.000Z,3.09
2023-02-13T20:53:02.635Z,3.04
2023-02-13T20:55:29.018Z,3.01
2023-02-13T20:57:55.426Z,3.00
2023-02-13T21:00:22.072Z,2.95
2023-02-13T21:02:49.057Z,2.90
2023-02-13T21:05:15.735Z,2.91
2023-02-13T21:07:42.312Z,2.90
2023-02-13T21:10:10.417Z,2.83
2023-02-13T21:12:36.822Z,2.76
2023-02-13T21:15:03.491Z,2.78
2023-02-13T21:17:29.885Z,2.77
2023-02-13T21:19:56.299Z,2.71
2023-02-13T21:22:22.773Z,2.71
2023-02-13T21:24:50.404Z,2.68
2023-02-13T21:27:16.911Z,2.67
2023-02-13T21:29:43.443Z,2.60
2023-02-13T21:32:10.190Z,2.54
2023-02-13T21:34:36.674Z,2.52
2023-02-13T21:37:03.629Z,2.50
2023-02-13T21:39:30.401Z,2.46
2023-02-13T21:41:56.869Z,2.40
2023-02-13T21:44:23.582Z,2.38
2023-02-13T21:46:50.500Z,2.37
2023-02-13T21:49:18.492Z,2.37
2023-02-13T21:51:46.184Z,2.29
2023-02-13T21:54:13.231Z,2.25
2023-02-13T21:56:41.488Z,2.20
2023-02-13T21:59:08.505Z,2.15
2023-02-13T22:01:45.708Z,2.12
2023-02-13T22:04:12.688Z,2.08
2023-02-13T22:06:40.053Z,2.05
2023-02-13T22:09:09.084Z,1.98
2023-02-13T22:11:36.813Z,1.89
2023-02-13T22:14:05.279Z,1.85
2023-02-13T22:16:34.162Z,1.93
2023-02-13T22:19:00.771Z,1.95
2023-02-13T22:21:30.057Z,2.02
2023-02-13T22:23:56.483Z,1.99
2023-02-13T22:26:27.559Z,1.95
2023-02-13T22:28:55.641Z,1.98
2023-02-13T22:31:25.820Z,1.92
2023-02-13T22:34:09.388Z,1.82
2023-02-13T22:36:40.836Z,1.79
2023-02-13T22:39:09.292Z,1.92
2023-02-13T22:41:35.898Z,1.95
2023-02-13T22:44:02.328Z,1.90
2023-02-13T22:46:33.173Z,1.84
2023-02-13T22:48:59.932Z,1.87
2023-02-13T22:51:29.406Z,1.89
2023-02-13T22:53:57.031Z,1.82
2023-02-13T22:56:24.866Z,1.72
2023-02-13T22:58:51.287Z,1.67
2023-02-13T23:01:20.368Z,1.57
2023-02-13T23:03:47.640Z,1.58
2023-02-13T23:06:15.300Z,1.53
2023-02-13T23:08:42.452Z,1.52
2023-02-13T23:11:30.917Z,1.52
2023-02-13T23:13:57.357Z,1.60
2023-02-13T23:16:49.616Z,1.62
2023-02-13T23:19:16.491Z,1.60
2023-02-13T23:21:43.134Z,1.52
2023-02-13T23:24:10.955Z,1.52
2023-02-13T23:26:37.404Z,1.53
2023-02-13T23:29:03.800Z,1.48
2023-02-13T23:31:30.350Z,1.42
2023-02-13T23:33:56.858Z,1.42
2023-02-13T23:36:23.239Z,1.44
2023-02-13T23:38:49.710Z,1.46
2023-02-13T23:41:16.429Z,1.42
2023-02-13T23:43:42.906Z,1.39
2023-02-13T23:46:09.344Z,1.42
2023-02-13T23:48:35.809Z,1.35
2023-02-13T23:51:02.395Z,1.26
2023-02-13T23:53:28.997Z,1.20
2023-02-13T23:55:55.822Z,1.11
2023-02-13T23:58:22.914Z,1.09
